createdAt,value
2017-03-29T00:00:47.611Z,1009.33
2017-03-29T00:01:47.607Z,1009.34
2017-03-29T00:02:47.630Z,1009.34
2017-03-29T00:03:47.661Z,1009.33
2017-03-29T00:04:47.664Z,1009.33
2017-03-29T00:05:47.695Z,1009.35
2017-03-29T00:06:47.731Z,1009.36
2017-03-29T00:07:47.724Z,1009.37
2017-03-29T00:08:47.743Z,1009.39
2017-03-29T00:09:47.763Z,1009.4
2017-03-29T00:10:47.788Z,1009.37
2017-03-29T00:11:47.809Z,1009.38
2017-03-29T00:12:47.823Z,1009.41
2017-03-29T00:13:47.849Z,1009.38
2017-03-29T00:14:47.863Z,1009.4
2017-03-29T00:15:47.882Z,1009.33
2017-03-29T00:16:47.903Z,1009.35
2017-03-29T00:17:47.923Z,1009.36
2017-03-29T00:18:47.950Z,1009.35
2017-03-29T00:19:47.967Z,1009.33
2017-03-29T00:20:48.021Z,1009.32
2017-03-29T00:21:48.000Z,1009.37
2017-03-29T00:22:48.050Z,1009.36
2017-03-29T00:23:48.054Z,1009.35
2017-03-29T00:24:48.059Z,1009.35
2017-03-29T00:25:48.081Z,1009.34
2017-03-29T00:26:48.099Z,1009.36
2017-03-29T00:27:48.125Z,1009.37
2017-03-29T00:28:48.137Z,1009.37
2017-03-29T00:29:48.165Z,1009.39
2017-03-29T00:30:48.176Z,1009.38
2017-03-29T00:31:48.228Z,1009.38
2017-03-29T00:32:48.218Z,1009.35
2017-03-29T00:33:48.235Z,1009.34
2017-03-29T00:34:48.256Z,1009.32
2017-03-29T00:35:48.278Z,1009.34
2017-03-29T00:36:48.296Z,1009.35
2017-03-29T00:37:48.317Z,1009.29
2017-03-29T00:38:48.335Z,1009.3
2017-03-29T00:39:48.353Z,1009.29
2017-03-29T00:40:48.373Z,1009.31
2017-03-29T00:41:48.395Z,1009.27
2017-03-29T00:42:48.412Z,1009.29
2017-03-29T00:43:48.431Z,1009.3
2017-03-29T00:44:48.452Z,1009.3
2017-03-29T00:45:48.478Z,1009.32
2017-03-29T00:46:48.490Z,1009.32
2017-03-29T00:47:48.525Z,1009.33
2017-03-29T00:48:48.544Z,1009.32
2017-03-29T00:49:48.546Z,1009.31
2017-03-29T00:50:48.567Z,1009.32
2017-03-29T00:51:48.589Z,1009.31
2017-03-29T00:52:48.612Z,1009.31
2017-03-29T00:53:48.636Z,1009.28
2017-03-29T00:54:48.645Z,1009.27
2017-03-29T00:55:48.666Z,1009.23
2017-03-29T00:56:48.686Z,1009.22
2017-03-29T00:57:48.705Z,1009.21
2017-03-29T00:58:48.724Z,1009.19
2017-03-29T00:59:48.741Z,1009.21
2017-03-29T01:00:48.763Z,1009.25
2017-03-29T01:01:48.779Z,1009.25
2017-03-29T01:02:48.847Z,1009.22
2017-03-29T01:03:48.816Z,1009.26
2017-03-29T01:04:48.856Z,1009.33
2017-03-29T01:05:48.861Z,1009.3
2017-03-29T01:06:48.876Z,1009.3
2017-03-29T01:07:48.915Z,1009.28
2017-03-29T01:08:48.915Z,1009.28
2017-03-29T01:09:48.935Z,1009.24
2017-03-29T01:10:48.953Z,1009.2
2017-03-29T01:11:48.974Z,1009.22
2017-03-29T01:12:48.993Z,1009.25
2017-03-29T01:13:49.012Z,1009.25
2017-03-29T01:14:49.031Z,1009.28
2017-03-29T01:15:49.051Z,1009.3
2017-03-29T01:16:49.112Z,1009.25
2017-03-29T01:17:49.088Z,1009.24
2017-03-29T01:18:49.108Z,1009.22
2017-03-29T01:19:49.127Z,1009.26
2017-03-29T01:20:49.146Z,1009.26
2017-03-29T01:21:49.168Z,1009.29
2017-03-29T01:22:49.187Z,1009.33
2017-03-29T01:23:49.205Z,1009.31
2017-03-29T01:24:49.224Z,1009.31
2017-03-29T01:25:49.252Z,1009.34
2017-03-29T01:26:49.262Z,1009.35
2017-03-29T01:27:49.285Z,1009.37
2017-03-29T01:28:49.333Z,1009.35
2017-03-29T01:29:49.322Z,1009.35
2017-03-29T01:30:49.342Z,1009.35
2017-03-29T01:31:49.363Z,1009.3
2017-03-29T01:32:49.379Z,1009.31
2017-03-29T01:33:49.399Z,1009.3
2017-03-29T01:34:49.418Z,1009.31
2017-03-29T01:35:49.469Z,1009.3
2017-03-29T01:36:49.503Z,1009.3
2017-03-29T01:37:49.475Z,1009.28
2017-03-29T01:38:49.495Z,1009.31
2017-03-29T01:39:49.514Z,1009.31
2017-03-29T01:40:49.534Z,1009.3
2017-03-29T01:41:49.558Z,1009.27
2017-03-29T01:42:49.577Z,1009.27
2017-03-29T01:43:49.592Z,1009.24
2017-03-29T01:44:49.614Z,1009.2
2017-03-29T01:45:49.642Z,1009.27
2017-03-29T01:46:49.653Z,1009.23
2017-03-29T01:47:49.711Z,1009.23
2017-03-29T01:48:49.697Z,1009.21
2017-03-29T01:49:49.706Z,1009.19
2017-03-29T01:50:49.724Z,1009.17
2017-03-29T01:51:49.759Z,1009.15
2017-03-29T01:52:49.806Z,1009.21
2017-03-29T01:53:49.782Z,1009.17
2017-03-29T01:54:49.803Z,1009.14
2017-03-29T01:55:49.819Z,1009.16
2017-03-29T01:56:49.878Z,1009.16
2017-03-29T01:57:49.860Z,1009.14
2017-03-29T01:58:49.879Z,1009.12
2017-03-29T01:59:49.896Z,1009.13
2017-03-29T02:00:49.915Z,1009.09
2017-03-29T02:01:49.950Z,1009.13
2017-03-29T02:02:49.953Z,1009.12
2017-03-29T02:03:49.972Z,1009.18
2017-03-29T02:04:49.992Z,1009.23
2017-03-29T02:05:50.012Z,1009.23
2017-03-29T02:06:50.030Z,1009.24
2017-03-29T02:07:50.059Z,1009.25
2017-03-29T02:08:50.089Z,1009.24
2017-03-29T02:09:50.086Z,1009.25
2017-03-29T02:10:50.106Z,1009.22
2017-03-29T02:11:50.146Z,1009.19
2017-03-29T02:12:50.169Z,1009.21
2017-03-29T02:13:50.165Z,1009.19
2017-03-29T02:14:50.183Z,1009.21
2017-03-29T02:15:50.209Z,1009.22
2017-03-29T02:16:50.223Z,1009.23
2017-03-29T02:17:50.241Z,1009.22
2017-03-29T02:18:50.259Z,1009.21
2017-03-29T02:19:50.277Z,1009.21
2017-03-29T02:20:50.299Z,1009.23
2017-03-29T02:21:50.313Z,1009.25
2017-03-29T02:22:50.332Z,1009.25
2017-03-29T02:23:50.350Z,1009.24
2017-03-29T02:24:50.370Z,1009.21
2017-03-29T02:25:50.391Z,1009.17
2017-03-29T02:26:50.408Z,1009.16
2017-03-29T02:27:50.427Z,1009.17
2017-03-29T02:28:50.451Z,1009.16
2017-03-29T02:29:50.468Z,1009.18
2017-03-29T02:30:50.484Z,1009.2
2017-03-29T02:31:50.503Z,1009.19
2017-03-29T02:32:50.523Z,1009.16
2017-03-29T02:33:50.542Z,1009.16
2017-03-29T02:34:50.558Z,1009.18
2017-03-29T02:35:50.578Z,1009.16
2017-03-29T02:36:50.603Z,1009.12
2017-03-29T02:37:50.626Z,1009.13
2017-03-29T02:38:50.638Z,1009.15
2017-03-29T02:39:50.653Z,1009.14
2017-03-29T02:40:50.675Z,1009.14
2017-03-29T02:41:50.696Z,1009.14
2017-03-29T02:42:50.711Z,1009.12
2017-03-29T02:43:50.732Z,1009.12
2017-03-29T02:44:50.749Z,1009.08
2017-03-29T02:45:50.769Z,1009.12
2017-03-29T02:46:50.789Z,1009.13
2017-03-29T02:47:50.808Z,1009.1
2017-03-29T02:48:50.826Z,1009.11
2017-03-29T02:49:50.844Z,1009.09
2017-03-29T02:50:50.863Z,1009.08
2017-03-29T02:51:50.994Z,1009.07
2017-03-29T02:52:50.902Z,1009.08
2017-03-29T02:53:50.920Z,1009.09
2017-03-29T02:54:50.941Z,1009.08
2017-03-29T02:55:50.960Z,1009.09
2017-03-29T02:56:50.978Z,1009.08
2017-03-29T02:57:51.113Z,1009.07
2017-03-29T02:58:51.014Z,1009.1
2017-03-29T02:59:51.141Z,1009.09
2017-03-29T03:00:51.151Z,1009.1
2017-03-29T03:01:51.160Z,1009.1
2017-03-29T03:02:51.171Z,1009.1
2017-03-29T03:03:51.168Z,1009.12
2017-03-29T03:04:51.178Z,1009.15
2017-03-29T03:05:51.176Z,1009.13
2017-03-29T03:06:51.185Z,1009.1
2017-03-29T03:07:51.193Z,1009.07
2017-03-29T03:08:51.263Z,1009.11
2017-03-29T03:09:51.260Z,1009.08
2017-03-29T03:10:51.269Z,1009.1
2017-03-29T03:11:51.279Z,1009.09
2017-03-29T03:12:51.287Z,1009.08
2017-03-29T03:13:51.295Z,1009.1
2017-03-29T03:14:51.412Z,1009.09
2017-03-29T03:15:51.403Z,1009.04
2017-03-29T03:16:51.429Z,1009.05
2017-03-29T03:17:51.438Z,1009.06
2017-03-29T03:18:51.468Z,1009.08
2017-03-29T03:19:51.654Z,1009.1
2017-03-29T03:20:51.477Z,1009.07
2017-03-29T03:21:51.444Z,1009.1
2017-03-29T03:22:51.459Z,1009.1
2017-03-29T03:23:51.481Z,1009.09
2017-03-29T03:24:51.496Z,1009.07
2017-03-29T03:25:51.515Z,1009.1
2017-03-29T03:26:51.532Z,1009.12
2017-03-29T03:27:51.552Z,1009.09
2017-03-29T03:28:51.571Z,1009.1
2017-03-29T03:29:51.587Z,1009.1
2017-03-29T03:30:51.607Z,1009.14
2017-03-29T03:31:51.625Z,1009.12
2017-03-29T03:32:51.647Z,1009.15
2017-03-29T03:33:51.663Z,1009.18
2017-03-29T03:34:51.685Z,1009.22
2017-03-29T03:35:51.703Z,1009.25
2017-03-29T03:36:51.718Z,1009.26
2017-03-29T03:37:51.735Z,1009.24
2017-03-29T03:38:51.756Z,1009.22
2017-03-29T03:39:51.777Z,1009.27
2017-03-29T03:40:51.793Z,1009.27
2017-03-29T03:41:51.812Z,1009.25
2017-03-29T03:42:51.830Z,1009.24
2017-03-29T03:43:51.849Z,1009.27
2017-03-29T03:44:51.866Z,1009.31
2017-03-29T03:45:51.892Z,1009.33
2017-03-29T03:46:51.904Z,1009.32
2017-03-29T03:47:51.919Z,1009.38
2017-03-29T03:48:51.942Z,1009.31
2017-03-29T03:49:51.986Z,1009.33
2017-03-29T03:50:51.979Z,1009.34
2017-03-29T03:51:52.118Z,1009.33
2017-03-29T03:52:52.050Z,1009.37
2017-03-29T03:53:52.046Z,1009.36
2017-03-29T03:54:52.158Z,1009.33
2017-03-29T03:55:52.124Z,1009.33
2017-03-29T03:56:52.095Z,1009.35
2017-03-29T03:57:52.104Z,1009.34
2017-03-29T03:58:52.171Z,1009.35
2017-03-29T03:59:52.241Z,1009.35
2017-03-29T04:00:52.248Z,1009.35
2017-03-29T04:01:52.255Z,1009.3
2017-03-29T04:02:52.289Z,1009.33
2017-03-29T04:03:52.214Z,1009.31
2017-03-29T04:04:52.235Z,1009.3
2017-03-29T04:05:52.257Z,1009.32
2017-03-29T04:06:52.270Z,1009.29
2017-03-29T04:07:52.288Z,1009.29
2017-03-29T04:08:52.306Z,1009.28
2017-03-29T04:09:52.324Z,1009.25
2017-03-29T04:10:52.342Z,1009.26
2017-03-29T04:11:52.361Z,1009.27
2017-03-29T04:12:52.377Z,1009.27
2017-03-29T04:13:52.396Z,1009.28
2017-03-29T04:14:52.415Z,1009.25
2017-03-29T04:15:52.433Z,1009.28
2017-03-29T04:16:52.535Z,1009.27
2017-03-29T04:17:52.471Z,1009.3
2017-03-29T04:18:52.488Z,1009.3
2017-03-29T04:19:52.506Z,1009.26
2017-03-29T04:20:52.524Z,1009.33
2017-03-29T04:21:52.543Z,1009.36
2017-03-29T04:22:52.562Z,1009.32
2017-03-29T04:23:52.582Z,1009.35
2017-03-29T04:24:52.599Z,1009.34
2017-03-29T04:25:52.615Z,1009.32
2017-03-29T04:26:52.637Z,1009.36
2017-03-29T04:27:52.651Z,1009.27
2017-03-29T04:28:52.672Z,1009.32
2017-03-29T04:29:52.701Z,1009.29
2017-03-29T04:30:52.706Z,1009.28
2017-03-29T04:31:52.725Z,1009.27
2017-03-29T04:32:52.739Z,1009.28
2017-03-29T04:33:52.760Z,1009.25
2017-03-29T04:34:52.779Z,1009.28
2017-03-29T04:35:52.797Z,1009.32
2017-03-29T04:36:52.816Z,1009.34
2017-03-29T04:37:52.833Z,1009.37
2017-03-29T04:38:52.853Z,1009.34
2017-03-29T04:39:52.867Z,1009.39
2017-03-29T04:40:52.891Z,1009.33
2017-03-29T04:41:52.907Z,1009.41
2017-03-29T04:42:52.921Z,1009.39
2017-03-29T04:43:52.941Z,1009.45
2017-03-29T04:44:52.960Z,1009.42
2017-03-29T04:45:52.975Z,1009.43
2017-03-29T04:46:52.996Z,1009.45
2017-03-29T04:47:53.014Z,1009.45
2017-03-29T04:48:53.030Z,1009.51
2017-03-29T04:49:53.047Z,1009.43
2017-03-29T04:50:53.066Z,1009.43
2017-03-29T04:51:53.085Z,1009.5
2017-03-29T04:52:53.107Z,1009.45
2017-03-29T04:53:53.118Z,1009.53
2017-03-29T04:54:53.138Z,1009.5
2017-03-29T04:55:53.160Z,1009.51
2017-03-29T04:56:53.173Z,1009.54
2017-03-29T04:57:53.194Z,1009.57
2017-03-29T04:58:53.218Z,1009.58
2017-03-29T04:59:53.230Z,1009.56
2017-03-29T05:00:53.246Z,1009.55
2017-03-29T05:01:53.265Z,1009.58
2017-03-29T05:02:53.283Z,1009.59
2017-03-29T05:03:53.302Z,1009.58
2017-03-29T05:04:53.319Z,1009.57
2017-03-29T05:05:53.366Z,1009.61
2017-03-29T05:06:53.360Z,1009.62
2017-03-29T05:07:53.373Z,1009.62
2017-03-29T05:08:53.388Z,1009.65
2017-03-29T05:09:53.406Z,1009.69
2017-03-29T05:10:53.424Z,1009.67
2017-03-29T05:11:53.443Z,1009.72
2017-03-29T05:12:53.462Z,1009.7
2017-03-29T05:13:53.478Z,1009.69
2017-03-29T05:14:53.496Z,1009.73
2017-03-29T05:15:53.515Z,1009.73
2017-03-29T05:16:53.535Z,1009.74
2017-03-29T05:17:53.550Z,1009.77
2017-03-29T05:18:53.574Z,1009.79
2017-03-29T05:19:53.586Z,1009.8
2017-03-29T05:20:53.627Z,1009.78
2017-03-29T05:21:53.624Z,1009.79
2017-03-29T05:22:53.641Z,1009.79
2017-03-29T05:23:53.655Z,1009.78
2017-03-29T05:24:53.674Z,1009.79
2017-03-29T05:25:53.699Z,1009.79
2017-03-29T05:26:53.709Z,1009.79
2017-03-29T05:27:53.727Z,1009.81
2017-03-29T05:28:53.745Z,1009.78
2017-03-29T05:29:53.764Z,1009.84
2017-03-29T05:30:53.779Z,1009.82
2017-03-29T05:31:53.799Z,1009.8
2017-03-29T05:32:53.817Z,1009.85
2017-03-29T05:33:53.833Z,1009.86
2017-03-29T05:34:53.852Z,1009.89
2017-03-29T05:35:53.870Z,1009.87
2017-03-29T05:36:53.887Z,1009.94
2017-03-29T05:37:53.905Z,1009.88
2017-03-29T05:38:53.924Z,1009.92
2017-03-29T05:39:53.941Z,1009.97
2017-03-29T05:40:53.958Z,1009.96
2017-03-29T05:41:53.976Z,1010.02
2017-03-29T05:42:53.994Z,1010.02
2017-03-29T05:43:54.013Z,1010
2017-03-29T05:44:54.029Z,1010
2017-03-29T05:45:54.047Z,1010.07
2017-03-29T05:46:54.066Z,1010.07
2017-03-29T05:47:54.085Z,1010.11
2017-03-29T05:48:54.101Z,1010.07
2017-03-29T05:49:54.119Z,1010.1
2017-03-29T05:50:54.137Z,1010.1
2017-03-29T05:51:54.155Z,1010.11
2017-03-29T05:52:54.173Z,1010.09
2017-03-29T05:53:54.190Z,1010.1
2017-03-29T05:54:54.209Z,1010.15
2017-03-29T05:55:54.227Z,1010.12
2017-03-29T05:56:54.245Z,1010.18
2017-03-29T05:57:54.263Z,1010.1
2017-03-29T05:58:54.281Z,1010.11
2017-03-29T05:59:54.297Z,1010.13
2017-03-29T06:00:54.316Z,1010.1
2017-03-29T06:01:54.334Z,1010.13
2017-03-29T06:02:54.352Z,1010.14
2017-03-29T06:03:54.368Z,1010.12
2017-03-29T06:04:54.389Z,1010.15
2017-03-29T06:05:54.405Z,1010.16
2017-03-29T06:06:54.425Z,1010.18
2017-03-29T06:07:54.441Z,1010.16
2017-03-29T06:08:54.467Z,1010.14
2017-03-29T06:09:54.477Z,1010.18
2017-03-29T06:10:54.494Z,1010.16
2017-03-29T06:11:54.514Z,1010.15
2017-03-29T06:12:54.531Z,1010.15
2017-03-29T06:13:54.546Z,1010.2
2017-03-29T06:14:54.565Z,1010.16
2017-03-29T06:15:54.584Z,1010.15
2017-03-29T06:16:54.603Z,1010.15
2017-03-29T06:17:54.618Z,1010.13
2017-03-29T06:18:54.637Z,1010.12
2017-03-29T06:19:54.655Z,1010.13
2017-03-29T06:20:54.673Z,1010.11
2017-03-29T06:21:54.690Z,1010.11
2017-03-29T06:22:54.708Z,1010.12
2017-03-29T06:23:54.730Z,1010.07
2017-03-29T06:24:54.743Z,1010.09
2017-03-29T06:25:54.763Z,1010.12
2017-03-29T06:26:54.780Z,1010.09
2017-03-29T06:27:54.800Z,1010.09
2017-03-29T06:28:54.816Z,1010.13
2017-03-29T06:29:54.835Z,1010.13
2017-03-29T06:30:54.852Z,1010.16
2017-03-29T06:31:54.869Z,1010.17
2017-03-29T06:32:54.886Z,1010.16
2017-03-29T06:33:54.906Z,1010.16
2017-03-29T06:34:54.924Z,1010.22
2017-03-29T06:35:54.942Z,1010.2
2017-03-29T06:36:54.961Z,1010.21
2017-03-29T06:37:54.980Z,1010.19
2017-03-29T06:38:54.996Z,1010.24
2017-03-29T06:39:55.014Z,1010.23
2017-03-29T06:40:55.032Z,1010.22
2017-03-29T06:41:55.050Z,1010.27
2017-03-29T06:42:55.069Z,1010.27
2017-03-29T06:43:55.086Z,1010.31
2017-03-29T06:44:55.103Z,1010.28
2017-03-29T06:45:55.122Z,1010.28
2017-03-29T06:46:55.144Z,1010.3
2017-03-29T06:47:55.159Z,1010.31
2017-03-29T06:48:55.176Z,1010.32
2017-03-29T06:49:55.194Z,1010.34
2017-03-29T06:50:55.211Z,1010.35
2017-03-29T06:51:55.230Z,1010.37
2017-03-29T06:52:55.249Z,1010.33
2017-03-29T06:53:55.270Z,1010.32
2017-03-29T06:54:55.285Z,1010.37
2017-03-29T06:55:55.302Z,1010.35
2017-03-29T06:56:55.320Z,1010.38
2017-03-29T06:57:55.337Z,1010.38
2017-03-29T06:58:55.356Z,1010.35
2017-03-29T06:59:55.377Z,1010.37
2017-03-29T07:00:55.392Z,1010.32
2017-03-29T07:01:55.410Z,1010.34
2017-03-29T07:02:55.429Z,1010.33
2017-03-29T07:03:55.474Z,1010.37
2017-03-29T07:04:55.507Z,1010.32
2017-03-29T07:05:55.483Z,1010.32
2017-03-29T07:06:55.502Z,1010.31
2017-03-29T07:07:55.523Z,1010.3
2017-03-29T07:08:55.537Z,1010.26
2017-03-29T07:09:55.556Z,1010.28
2017-03-29T07:10:55.578Z,1010.33
2017-03-29T07:11:55.594Z,1010.26
2017-03-29T07:12:55.611Z,1010.27
2017-03-29T07:13:55.629Z,1010.26
2017-03-29T07:14:55.652Z,1010.31
2017-03-29T07:15:55.667Z,1010.3
2017-03-29T07:16:55.683Z,1010.27
2017-03-29T07:17:55.703Z,1010.33
2017-03-29T07:18:55.721Z,1010.36
2017-03-29T07:19:55.740Z,1010.36
2017-03-29T07:20:55.759Z,1010.33
2017-03-29T07:21:55.776Z,1010.36
2017-03-29T07:22:55.795Z,1010.33
2017-03-29T07:23:55.812Z,1010.41
2017-03-29T07:24:55.830Z,1010.36
2017-03-29T07:25:55.849Z,1010.31
2017-03-29T07:26:55.867Z,1010.32
2017-03-29T07:27:55.886Z,1010.34
2017-03-29T07:28:55.905Z,1010.28
2017-03-29T07:29:55.924Z,1010.34
2017-03-29T07:30:55.941Z,1010.42
2017-03-29T07:31:55.960Z,1010.36
2017-03-29T07:32:55.978Z,1010.41
2017-03-29T07:33:55.999Z,1010.39
2017-03-29T07:34:56.014Z,1010.37
2017-03-29T07:35:56.034Z,1010.38
2017-03-29T07:36:56.054Z,1010.4
2017-03-29T07:37:56.116Z,1010.41
2017-03-29T07:38:56.190Z,1010.38
2017-03-29T07:39:56.123Z,1010.39
2017-03-29T07:40:56.132Z,1010.38
2017-03-29T07:41:56.145Z,1010.38
2017-03-29T07:42:56.164Z,1010.39
2017-03-29T07:43:56.183Z,1010.42
2017-03-29T07:44:56.204Z,1010.38
2017-03-29T07:45:56.220Z,1010.41
2017-03-29T07:46:56.239Z,1010.36
2017-03-29T07:47:56.258Z,1010.34
2017-03-29T07:48:56.276Z,1010.4
2017-03-29T07:49:56.296Z,1010.33
2017-03-29T07:50:56.313Z,1010.4
2017-03-29T07:51:56.333Z,1010.37
2017-03-29T07:52:56.351Z,1010.41
2017-03-29T07:53:56.460Z,1010.37
2017-03-29T07:54:56.390Z,1010.39
2017-03-29T07:55:56.408Z,1010.47
2017-03-29T07:56:56.430Z,1010.49
2017-03-29T07:57:56.449Z,1010.5
2017-03-29T07:58:56.465Z,1010.55
2017-03-29T07:59:56.483Z,1010.46
2017-03-29T08:00:56.502Z,1010.56
2017-03-29T08:01:56.522Z,1010.58
2017-03-29T08:02:56.542Z,1010.55
2017-03-29T08:03:56.558Z,1010.63
2017-03-29T08:04:56.577Z,1010.63
2017-03-29T08:05:56.597Z,1010.62
2017-03-29T08:06:56.615Z,1010.62
2017-03-29T08:07:56.633Z,1010.66
2017-03-29T08:08:56.652Z,1010.66
2017-03-29T08:09:56.673Z,1010.74
2017-03-29T08:10:56.692Z,1010.71
2017-03-29T08:11:56.709Z,1010.71
2017-03-29T08:12:56.728Z,1010.77
2017-03-29T08:13:56.799Z,1010.84
2017-03-29T08:14:56.768Z,1010.8
2017-03-29T08:15:56.786Z,1010.8
2017-03-29T08:16:56.806Z,1010.86
2017-03-29T08:17:56.826Z,1010.95
2017-03-29T08:18:56.847Z,1010.86
2017-03-29T08:19:56.863Z,1010.88
2017-03-29T08:20:56.882Z,1010.85
2017-03-29T08:21:56.900Z,1010.79
2017-03-29T08:22:56.920Z,1010.85
2017-03-29T08:23:56.940Z,1010.88
2017-03-29T08:24:56.959Z,1010.92
2017-03-29T08:25:56.980Z,1010.87
2017-03-29T08:26:56.998Z,1010.85
2017-03-29T08:27:57.021Z,1010.95
2017-03-29T08:28:57.036Z,1010.93
2017-03-29T08:29:57.055Z,1010.98
2017-03-29T08:30:57.075Z,1010.97
2017-03-29T08:31:57.096Z,1010.93
2017-03-29T08:32:57.113Z,1010.95
2017-03-29T08:33:57.133Z,1011
2017-03-29T08:34:57.158Z,1011.05
2017-03-29T08:35:57.173Z,1010.98
2017-03-29T08:36:57.192Z,1010.96
2017-03-29T08:37:57.211Z,1010.97
2017-03-29T08:38:57.233Z,1010.95
2017-03-29T08:39:57.252Z,1010.96
2017-03-29T08:40:57.271Z,1010.98
2017-03-29T08:41:57.291Z,1011.03
2017-03-29T08:42:57.310Z,1010.99
2017-03-29T08:43:57.328Z,1011.04
2017-03-29T08:44:57.352Z,1011.05
2017-03-29T08:45:57.369Z,1011.1
2017-03-29T08:46:57.390Z,1011.1
2017-03-29T08:47:57.409Z,1011.13
2017-03-29T08:48:57.429Z,1011.09
2017-03-29T08:49:57.449Z,1011.14
2017-03-29T08:50:57.469Z,1011.11
2017-03-29T08:51:57.489Z,1011.13
2017-03-29T08:52:57.507Z,1011.11
2017-03-29T08:53:57.528Z,1011.09
2017-03-29T08:54:57.547Z,1011.12
2017-03-29T08:55:57.569Z,1011.16
2017-03-29T08:56:57.589Z,1011.15
2017-03-29T08:57:57.607Z,1011.15
2017-03-29T08:58:57.628Z,1011.2
2017-03-29T08:59:57.648Z,1011.22
2017-03-29T09:00:57.670Z,1011.23
2017-03-29T09:01:57.689Z,1011.29
2017-03-29T09:02:57.709Z,1011.26
2017-03-29T09:03:57.730Z,1011.34
2017-03-29T09:04:57.750Z,1011.37
2017-03-29T09:05:57.769Z,1011.32
2017-03-29T09:06:57.792Z,1011.3
2017-03-29T09:07:57.810Z,1011.34
2017-03-29T09:08:57.830Z,1011.29
2017-03-29T09:09:57.850Z,1011.28
2017-03-29T09:10:57.870Z,1011.25
2017-03-29T09:11:57.891Z,1011.25
2017-03-29T09:12:57.909Z,1011.23
2017-03-29T09:13:57.931Z,1011.23
2017-03-29T09:14:57.953Z,1011.22
2017-03-29T09:15:57.973Z,1011.22
2017-03-29T09:16:57.991Z,1011.16
2017-03-29T09:17:58.012Z,1011.11
2017-03-29T09:18:58.033Z,1011.13
2017-03-29T09:19:58.053Z,1011.14
2017-03-29T09:20:58.073Z,1011.19
2017-03-29T09:21:58.095Z,1011.18
2017-03-29T09:22:58.114Z,1011.15
2017-03-29T09:23:58.134Z,1011.13
2017-03-29T09:24:58.154Z,1011.05
2017-03-29T09:25:58.175Z,1011.03
2017-03-29T09:26:58.196Z,1011.01
2017-03-29T09:27:58.216Z,1011.05
2017-03-29T09:28:58.237Z,1011.05
2017-03-29T09:29:58.257Z,1011.02
2017-03-29T09:30:58.278Z,1011.06
2017-03-29T09:31:58.298Z,1011.04
2017-03-29T09:32:58.318Z,1011.07
2017-03-29T09:33:58.342Z,1011.13
2017-03-29T09:34:58.360Z,1011.09
2017-03-29T09:35:58.381Z,1011.14
2017-03-29T09:36:58.402Z,1011.09
2017-03-29T09:37:58.422Z,1011.21
2017-03-29T09:38:58.443Z,1011.1
2017-03-29T09:39:58.463Z,1011.13
2017-03-29T09:40:58.486Z,1011.18
2017-03-29T09:41:58.506Z,1011.17
2017-03-29T09:42:58.528Z,1011.13
2017-03-29T09:43:58.546Z,1011.09
2017-03-29T09:44:58.567Z,1011.12
2017-03-29T09:45:58.587Z,1011.17
2017-03-29T09:46:58.608Z,1011.23
2017-03-29T09:47:58.630Z,1011.23
2017-03-29T09:48:58.651Z,1011.24
2017-03-29T09:49:58.670Z,1011.27
2017-03-29T09:50:58.690Z,1011.21
2017-03-29T09:51:58.713Z,1011.4
2017-03-29T09:52:58.739Z,1011.35
2017-03-29T09:53:58.754Z,1011.32
2017-03-29T09:54:58.776Z,1011.33
2017-03-29T09:55:58.797Z,1011.31
2017-03-29T09:56:58.817Z,1011.34
2017-03-29T09:57:58.838Z,1011.32
2017-03-29T09:58:58.859Z,1011.29
2017-03-29T09:59:58.882Z,1011.26
2017-03-29T10:00:58.902Z,1011.25
2017-03-29T10:01:58.923Z,1011.35
2017-03-29T10:02:58.944Z,1011.33
2017-03-29T10:03:58.965Z,1011.34
2017-03-29T10:04:58.986Z,1011.32
2017-03-29T10:05:59.038Z,1011.28
2017-03-29T10:06:59.028Z,1011.34
2017-03-29T10:07:59.049Z,1011.31
2017-03-29T10:08:59.071Z,1011.33
2017-03-29T10:09:59.093Z,1011.32
2017-03-29T10:10:59.115Z,1011.3
2017-03-29T10:11:59.135Z,1011.25
2017-03-29T10:12:59.157Z,1011.24
2017-03-29T10:13:59.180Z,1011.24
2017-03-29T10:14:59.200Z,1011.22
2017-03-29T10:15:59.222Z,1011.22
2017-03-29T10:16:59.241Z,1011.27
2017-03-29T10:17:59.265Z,1011.25
2017-03-29T10:18:59.286Z,1011.33
2017-03-29T10:19:59.307Z,1011.28
2017-03-29T10:20:59.328Z,1011.27
2017-03-29T10:21:59.351Z,1011.26
2017-03-29T10:22:59.371Z,1011.19
2017-03-29T10:23:59.393Z,1011.16
2017-03-29T10:24:59.414Z,1011.17
2017-03-29T10:25:59.436Z,1011.16
2017-03-29T10:26:59.458Z,1011.12
2017-03-29T10:27:59.480Z,1011.15
2017-03-29T10:28:59.502Z,1011.09
2017-03-29T10:29:59.527Z,1011.09
2017-03-29T10:30:59.545Z,1011.18
2017-03-29T10:31:59.567Z,1011.09
2017-03-29T10:32:59.588Z,1011.17
2017-03-29T10:33:59.610Z,1011.13
2017-03-29T10:34:59.631Z,1011.1
2017-03-29T10:35:59.654Z,1011.11
2017-03-29T10:36:59.676Z,1011.08
2017-03-29T10:37:59.696Z,1011.07
2017-03-29T10:38:59.721Z,1011.05
2017-03-29T10:39:59.743Z,1011.04
2017-03-29T10:40:59.763Z,1011.12
2017-03-29T10:41:59.784Z,1011.06
2017-03-29T10:42:59.808Z,1011.06
2017-03-29T10:43:59.831Z,1011.04
2017-03-29T10:44:59.851Z,1011.03
2017-03-29T10:45:59.873Z,1011.04
2017-03-29T10:46:59.894Z,1011.03
2017-03-29T10:47:59.916Z,1011.07
2017-03-29T10:48:59.939Z,1011.05
2017-03-29T10:49:59.960Z,1011.02
2017-03-29T10:50:59.982Z,1011.06
2017-03-29T10:52:00.005Z,1011.04
2017-03-29T10:53:00.027Z,1010.99
2017-03-29T10:54:00.051Z,1011.02
2017-03-29T10:55:00.071Z,1010.97
2017-03-29T10:56:00.092Z,1010.97
2017-03-29T10:57:00.115Z,1011.01
2017-03-29T10:58:00.137Z,1011.02
2017-03-29T10:59:00.157Z,1010.95
2017-03-29T11:00:00.180Z,1011.04
2017-03-29T11:01:00.203Z,1010.99
2017-03-29T11:02:00.225Z,1010.94
2017-03-29T11:03:00.245Z,1011
2017-03-29T11:04:00.267Z,1010.99
2017-03-29T11:05:00.290Z,1011.05
2017-03-29T11:06:00.316Z,1010.98
2017-03-29T11:07:00.333Z,1011.02
2017-03-29T11:08:00.363Z,1010.99
2017-03-29T11:09:00.378Z,1010.96
2017-03-29T11:10:00.398Z,1010.98
2017-03-29T11:11:00.425Z,1010.96
2017-03-29T11:12:00.444Z,1010.93
2017-03-29T11:13:00.465Z,1010.93
2017-03-29T11:14:00.486Z,1010.9
2017-03-29T11:15:00.508Z,1010.93
2017-03-29T11:16:00.531Z,1010.94
2017-03-29T11:17:00.553Z,1010.85
2017-03-29T11:18:00.575Z,1010.89
2017-03-29T11:19:00.597Z,1010.86
2017-03-29T11:20:00.630Z,1010.85
2017-03-29T11:21:00.643Z,1010.9
2017-03-29T11:22:00.668Z,1010.84
2017-03-29T11:23:00.685Z,1010.85
2017-03-29T11:24:00.707Z,1010.85
2017-03-29T11:25:00.729Z,1010.88
2017-03-29T11:26:00.749Z,1010.91
2017-03-29T11:27:00.771Z,1010.84
2017-03-29T11:28:00.795Z,1010.8
2017-03-29T11:29:00.814Z,1010.82
2017-03-29T11:30:00.839Z,1010.78
2017-03-29T11:31:00.859Z,1010.79
2017-03-29T11:32:00.881Z,1010.8
2017-03-29T11:33:00.904Z,1010.74
2017-03-29T11:34:00.934Z,1010.76
2017-03-29T11:35:00.947Z,1010.75
2017-03-29T11:36:00.971Z,1010.76
2017-03-29T11:37:00.989Z,1010.81
2017-03-29T11:38:01.013Z,1010.75
2017-03-29T11:39:01.037Z,1010.74
2017-03-29T11:40:01.057Z,1010.75
2017-03-29T11:41:01.079Z,1010.77
2017-03-29T11:42:01.104Z,1010.76
2017-03-29T11:43:01.123Z,1010.74
2017-03-29T11:44:01.150Z,1010.72
2017-03-29T11:45:01.166Z,1010.73
2017-03-29T11:46:01.188Z,1010.74
2017-03-29T11:47:01.209Z,1010.72
2017-03-29T11:48:01.238Z,1010.74
2017-03-29T11:49:01.254Z,1010.7
2017-03-29T11:50:01.285Z,1010.72
2017-03-29T11:51:01.297Z,1010.68
2017-03-29T11:52:01.320Z,1010.7
2017-03-29T11:53:01.353Z,1010.7
2017-03-29T11:54:01.363Z,1010.7
2017-03-29T11:55:01.385Z,1010.65
2017-03-29T11:56:01.409Z,1010.65
2017-03-29T11:57:01.429Z,1010.67
2017-03-29T11:58:01.457Z,1010.61
2017-03-29T11:59:01.473Z,1010.63
2017-03-29T12:00:01.497Z,1010.63
2017-03-29T12:01:01.518Z,1010.59
2017-03-29T12:02:01.539Z,1010.54
2017-03-29T12:03:01.562Z,1010.6
2017-03-29T12:04:01.588Z,1010.58
2017-03-29T12:05:01.606Z,1010.61
2017-03-29T12:06:01.626Z,1010.57
2017-03-29T12:07:01.649Z,1010.58
2017-03-29T12:08:01.673Z,1010.52
2017-03-29T12:09:01.693Z,1010.6